sensor_id;sensor_type;location;lat;lon;timestamp;P1;durP1;ratioP1;P2;durP2;ratioP2
71080;SDS011;58740;50.672;18.690;2022-12-18T00:01:32;53.40;;;19.20;;
71080;SDS011;58740;50.672;18.690;2022-12-18T00:04:07;74.20;;;25.10;;
71080;SDS011;58740;50.672;18.690;2022-12-18T00:06:40;82.00;;;24.60;;
71080;SDS011;58740;50.672;18.690;2022-12-18T00:09:08;70.20;;;24.90;;
71080;SDS011;58740;50.672;18.690;2022-12-18T00:11:36;70.20;;;24.20;;
71080;SDS011;58740;50.672;18.690;2022-12-18T00:14:04;81.10;;;21.20;;
71080;SDS011;58740;50.672;18.690;2022-12-18T00:16:31;66.70;;;22.30;;
71080;SDS011;58740;50.672;18.690;2022-12-18T00:19:04;63.50;;;20.50;;
71080;SDS011;58740;50.672;18.690;2022-12-18T00:21:32;60.60;;;21.60;;
71080;SDS011;58740;50.672;18.690;2022-12-18T00:24:01;65.40;;;21.90;;
71080;SDS011;58740;50.672;18.690;2022-12-18T00:26:31;67.80;;;20.80;;
71080;SDS011;58740;50.672;18.690;2022-12-18T00:29:09;57.40;;;21.40;;
71080;SDS011;58740;50.672;18.690;2022-12-18T00:31:41;47.20;;;18.80;;
71080;SDS011;58740;50.672;18.690;2022-12-18T00:34:12;53.20;;;20.30;;
71080;SDS011;58740;50.672;18.690;2022-12-18T00:36:41;54.70;;;18.70;;
71080;SDS011;58740;50.672;18.690;2022-12-18T00:39:10;56.60;;;17.80;;
71080;SDS011;58740;50.672;18.690;2022-12-18T00:41:39;67.90;;;21.70;;
71080;SDS011;58740;50.672;18.690;2022-12-18T00:44:25;53.80;;;19.70;;
71080;SDS011;58740;50.672;18.690;2022-12-18T00:46:53;61.70;;;21.00;;
71080;SDS011;58740;50.672;18.690;2022-12-18T00:49:20;51.20;;;19.10;;
71080;SDS011;58740;50.672;18.690;2022-12-18T00:51:48;60.10;;;20.10;;
71080;SDS011;58740;50.672;18.690;2022-12-18T00:54:17;57.20;;;20.10;;
71080;SDS011;58740;50.672;18.690;2022-12-18T00:56:45;54.60;;;19.60;;
71080;SDS011;58740;50.672;18.690;2022-12-18T00:59:17;46.30;;;18.00;;
71080;SDS011;58740;50.672;18.690;2022-12-18T01:01:46;53.20;;;18.30;;
71080;SDS011;58740;50.672;18.690;2022-12-18T01:04:14;51.20;;;17.70;;
71080;SDS011;58740;50.672;18.690;2022-12-18T01:06:42;50.20;;;19.60;;
71080;SDS011;58740;50.672;18.690;2022-12-18T01:09:12;55.80;;;19.50;;
71080;SDS011;58740;50.672;18.690;2022-12-18T01:11:41;50.50;;;17.40;;
71080;SDS011;58740;50.672;18.690;2022-12-18T01:14:08;49.40;;;19.20;;
71080;SDS011;58740;50.672;18.690;2022-12-18T01:16:37;59.10;;;21.20;;
71080;SDS011;58740;50.672;18.690;2022-12-18T01:19:05;50.10;;;18.50;;
71080;SDS011;58740;50.672;18.690;2022-12-18T01:21:33;49.90;;;17.20;;
71080;SDS011;58740;50.672;18.690;2022-12-18T01:24:01;53.30;;;17.80;;
71080;SDS011;58740;50.672;18.690;2022-12-18T01:26:29;49.30;;;17.60;;
71080;SDS011;58740;50.672;18.690;2022-12-18T01:28:57;53.40;;;18.10;;
71080;SDS011;58740;50.672;18.690;2022-12-18T01:31:28;47.10;;;17.90;;
71080;SDS011;58740;50.672;18.690;2022-12-18T01:34:00;34.30;;;14.70;;
71080;SDS011;58740;50.672;18.690;2022-12-18T01:36:31;43.60;;;16.80;;
71080;SDS011;58740;50.672;18.690;2022-12-18T01:39:03;45.30;;;17.40;;
71080;SDS011;58740;50.672;18.690;2022-12-18T01:41:34;43.90;;;16.00;;
71080;SDS011;58740;50.672;18.690;2022-12-18T01:47:48;56.60;;;20.00;;
71080;SDS011;58740;50.672;18.690;2022-12-18T01:50:38;44.70;;;17.00;;
71080;SDS011;58740;50.672;18.690;2022-12-18T01:53:15;53.90;;;18.40;;
71080;SDS011;58740;50.672;18.690;2022-12-18T01:55:56;44.90;;;16.30;;
71080;SDS011;58740;50.672;18.690;2022-12-18T01:58:35;44.70;;;15.40;;
71080;SDS011;58740;50.672;18.690;2022-12-18T02:01:06;47.60;;;15.80;;
71080;SDS011;58740;50.672;18.690;2022-12-18T02:03:36;46.10;;;17.10;;
71080;SDS011;58740;50.672;18.690;2022-12-18T02:06:07;45.70;;;16.50;;
71080;SDS011;58740;50.672;18.690;2022-12-18T02:17:53;42.70;;;14.10;;
71080;SDS011;58740;50.672;18.690;2022-12-18T02:20:33;44.10;;;14.40;;
71080;SDS011;58740;50.672;18.690;2022-12-18T02:23:06;49.70;;;15.20;;
71080;SDS011;58740;50.672;18.690;2022-12-18T02:28:49;35.60;;;13.90;;
71080;SDS011;58740;50.672;18.690;2022-12-18T02:31:26;36.90;;;12.50;;
71080;SDS011;58740;50.672;18.690;2022-12-18T02:34:00;38.70;;;11.70;;
71080;SDS011;58740;50.672;18.690;2022-12-18T02:36:32;35.40;;;11.90;;
71080;SDS011;58740;50.672;18.690;2022-12-18T02:39:05;41.60;;;13.90;;
71080;SDS011;58740;50.672;18.690;2022-12-18T02:41:36;46.80;;;14.70;;
71080;SDS011;58740;50.672;18.690;2022-12-18T02:44:12;43.20;;;15.10;;
71080;SDS011;58740;50.672;18.690;2022-12-18T02:46:43;52.80;;;17.00;;
71080;SDS011;58740;50.672;18.690;2022-12-18T03:00:53;41.40;;;14.40;;
71080;SDS011;58740;50.672;18.690;2022-12-18T03:03:40;41.90;;;15.50;;
71080;SDS011;58740;50.672;18.690;2022-12-18T03:06:22;43.70;;;15.70;;
71080;SDS011;58740;50.672;18.690;2022-12-18T03:09:07;38.00;;;13.40;;
71080;SDS011;58740;50.672;18.690;2022-12-18T03:11:42;38.00;;;13.60;;
71080;SDS011;58740;50.672;18.690;2022-12-18T03:14:34;37.60;;;13.60;;
71080;SDS011;58740;50.672;18.690;2022-12-18T03:17:08;41.20;;;14.10;;
71080;SDS011;58740;50.672;18.690;2022-12-18T03:19:43;34.20;;;11.60;;
71080;SDS011;58740;50.672;18.690;2022-12-18T03:22:15;32.30;;;11.30;;
71080;SDS011;58740;50.672;18.690;2022-12-18T03:24:45;38.30;;;11.70;;
71080;SDS011;58740;50.672;18.690;2022-12-18T03:27:18;36.10;;;12.40;;
71080;SDS011;58740;50.672;18.690;2022-12-18T03:30:04;46.80;;;15.70;;
71080;SDS011;58740;50.672;18.690;2022-12-18T03:32:47;38.70;;;13.00;;
71080;SDS011;58740;50.672;18.690;2022-12-18T03:35:29;39.00;;;12.70;;
71080;SDS011;58740;50.672;18.690;2022-12-18T03:38:01;39.40;;;13.20;;
71080;SDS011;58740;50.672;18.690;2022-12-18T03:40:59;39.80;;;12.60;;
71080;SDS011;58740;50.672;18.690;2022-12-18T03:43:43;39.60;;;12.40;;
71080;SDS011;58740;50.672;18.690;2022-12-18T03:55:02;33.50;;;11.60;;
71080;SDS011;58740;50.672;18.690;2022-12-18T03:57:33;32.90;;;12.60;;
71080;SDS011;58740;50.672;18.690;2022-12-18T04:00:21;34.00;;;10.70;;
71080;SDS011;58740;50.672;18.690;2022-12-18T04:02:51;41.80;;;14.00;;
71080;SDS011;58740;50.672;18.690;2022-12-18T04:05:22;44.10;;;14.60;;
71080;SDS011;58740;50.672;18.690;2022-12-18T04:07:54;38.90;;;13.00;;
71080;SDS011;58740;50.672;18.690;2022-12-18T04:10:23;45.10;;;15.20;;
71080;SDS011;58740;50.672;18.690;2022-12-18T04:12:55;37.10;;;13.30;;
71080;SDS011;58740;50.672;18.690;2022-12-18T04:15:24;41.80;;;12.80;;
71080;SDS011;58740;50.672;18.690;2022-12-18T04:17:52;29.60;;;11.80;;
71080;SDS011;58740;50.672;18.690;2022-12-18T04:20:20;33.70;;;11.80;;
71080;SDS011;58740;50.672;18.690;2022-12-18T04:22:47;41.30;;;14.00;;
71080;SDS011;58740;50.672;18.690;2022-12-18T04:25:15;38.10;;;12.80;;
71080;SDS011;58740;50.672;18.690;2022-12-18T04:27:43;40.60;;;13.90;;
71080;SDS011;58740;50.672;18.690;2022-12-18T04:30:11;37.70;;;12.50;;
71080;SDS011;58740;50.672;18.690;2022-12-18T04:32:39;31.90;;;11.00;;
71080;SDS011;58740;50.672;18.690;2022-12-18T04:35:08;34.20;;;10.60;;
71080;SDS011;58740;50.672;18.690;2022-12-18T04:37:37;33.60;;;10.40;;
71080;SDS011;58740;50.672;18.690;2022-12-18T04:40:06;33.20;;;10.90;;
71080;SDS011;58740;50.672;18.690;2022-12-18T04:42:34;43.20;;;12.80;;
71080;SDS011;58740;50.672;18.690;2022-12-18T04:45:02;37.10;;;11.90;;
71080;SDS011;58740;50.672;18.690;2022-12-18T04:47:30;35.50;;;11.30;;
71080;SDS011;58740;50.672;18.690;2022-12-18T04:49:58;30.60;;;11.00;;
71080;SDS011;58740;50.672;18.690;2022-12-18T04:52:26;31.20;;;10.10;;
71080;SDS011;58740;50.672;18.690;2022-12-18T04:54:53;35.00;;;12.30;;
71080;SDS011;58740;50.672;18.690;2022-12-18T04:57:21;39.80;;;14.80;;
71080;SDS011;58740;50.672;18.690;2022-12-18T04:59:49;32.90;;;12.10;;
71080;SDS011;58740;50.672;18.690;2022-12-18T05:02:16;30.70;;;10.30;;
71080;SDS011;58740;50.672;18.690;2022-12-18T05:04:44;28.00;;;10.10;;
71080;SDS011;58740;50.672;18.690;2022-12-18T05:07:12;33.90;;;10.70;;
71080;SDS011;58740;50.672;18.690;2022-12-18T05:09:40;29.80;;;11.00;;
71080;SDS011;58740;50.672;18.690;2022-12-18T05:12:08;25.40;;;8.70;;
71080;SDS011;58740;50.672;18.690;2022-12-18T05:14:36;40.80;;;12.70;;
71080;SDS011;58740;50.672;18.690;2022-12-18T05:17:03;45.20;;;13.20;;
71080;SDS011;58740;50.672;18.690;2022-12-18T05:19:31;39.50;;;12.80;;
71080;SDS011;58740;50.672;18.690;2022-12-18T05:21:59;37.30;;;11.00;;
71080;SDS011;58740;50.672;18.690;2022-12-18T05:24:27;39.00;;;11.90;;
71080;SDS011;58740;50.672;18.690;2022-12-18T05:26:54;32.80;;;12.50;;
71080;SDS011;58740;50.672;18.690;2022-12-18T05:29:22;37.20;;;12.30;;
71080;SDS011;58740;50.672;18.690;2022-12-18T05:31:50;37.50;;;12.90;;
71080;SDS011;58740;50.672;18.690;2022-12-18T05:34:18;37.30;;;14.10;;
71080;SDS011;58740;50.672;18.690;2022-12-18T05:36:46;37.20;;;14.80;;
71080;SDS011;58740;50.672;18.690;2022-12-18T05:39:13;33.10;;;11.30;;
71080;SDS011;58740;50.672;18.690;2022-12-18T05:41:41;31.90;;;10.50;;
71080;SDS011;58740;50.672;18.690;2022-12-18T05:44:09;28.60;;;8.80;;
71080;SDS011;58740;50.672;18.690;2022-12-18T05:46:37;29.20;;;9.90;;
71080;SDS011;58740;50.672;18.690;2022-12-18T05:49:05;33.60;;;11.20;;
71080;SDS011;58740;50.672;18.690;2022-12-18T05:51:33;35.10;;;11.30;;
71080;SDS011;58740;50.672;18.690;2022-12-18T05:54:00;37.60;;;11.90;;
71080;SDS011;58740;50.672;18.690;2022-12-18T05:56:28;40.10;;;13.30;;
71080;SDS011;58740;50.672;18.690;2022-12-18T05:58:55;34.50;;;11.80;;
71080;SDS011;58740;50.672;18.690;2022-12-18T06:01:25;27.90;;;10.40;;
71080;SDS011;58740;50.672;18.690;2022-12-18T06:03:54;37.60;;;10.90;;
71080;SDS011;58740;50.672;18.690;2022-12-18T06:06:25;31.80;;;11.00;;
71080;SDS011;58740;50.672;18.690;2022-12-18T06:08:55;33.30;;;10.80;;
71080;SDS011;58740;50.672;18.690;2022-12-18T06:11:26;36.60;;;12.70;;
71080;SDS011;58740;50.672;18.690;2022-12-18T06:13:55;22.80;;;8.40;;
71080;SDS011;58740;50.672;18.690;2022-12-18T06:16:29;35.80;;;11.10;;
71080;SDS011;58740;50.672;18.690;2022-12-18T06:19:02;35.20;;;10.60;;
71080;SDS011;58740;50.672;18.690;2022-12-18T06:21:32;30.40;;;10.80;;
71080;SDS011;58740;50.672;18.690;2022-12-18T06:24:02;27.70;;;9.50;;
71080;SDS011;58740;50.672;18.690;2022-12-18T06:26:30;25.10;;;9.10;;
71080;SDS011;58740;50.672;18.690;2022-12-18T06:28:58;34.60;;;10.30;;
71080;SDS011;58740;50.672;18.690;2022-12-18T06:31:26;46.60;;;12.30;;
71080;SDS011;58740;50.672;18.690;2022-12-18T06:33:54;28.30;;;9.10;;
71080;SDS011;58740;50.672;18.690;2022-12-18T06:36:22;35.80;;;11.60;;
71080;SDS011;58740;50.672;18.690;2022-12-18T06:38:50;35.50;;;10.00;;
71080;SDS011;58740;50.672;18.690;2022-12-18T06:41:20;35.50;;;10.70;;
71080;SDS011;58740;50.672;18.690;2022-12-18T06:43:48;30.10;;;9.00;;
71080;SDS011;58740;50.672;18.690;2022-12-18T06:46:16;25.70;;;10.00;;
71080;SDS011;58740;50.672;18.690;2022-12-18T06:48:49;28.30;;;8.70;;
71080;SDS011;58740;50.672;18.690;2022-12-18T06:51:19;28.80;;;9.10;;
71080;SDS011;58740;50.672;18.690;2022-12-18T06:53:48;30.10;;;8.40;;
71080;SDS011;58740;50.672;18.690;2022-12-18T06:56:16;18.60;;;6.70;;
71080;SDS011;58740;50.672;18.690;2022-12-18T06:58:44;29.40;;;9.40;;
71080;SDS011;58740;50.672;18.690;2022-12-18T07:01:12;25.40;;;8.30;;
71080;SDS011;58740;50.672;18.690;2022-12-18T07:03:42;37.40;;;10.60;;
71080;SDS011;58740;50.672;18.690;2022-12-18T07:06:16;27.50;;;11.30;;
71080;SDS011;58740;50.672;18.690;2022-12-18T07:08:46;39.10;;;15.00;;
71080;SDS011;58740;50.672;18.690;2022-12-18T07:11:16;44.20;;;13.60;;
71080;SDS011;58740;50.672;18.690;2022-12-18T07:13:45;34.60;;;11.80;;
71080;SDS011;58740;50.672;18.690;2022-12-18T07:16:15;49.50;;;19.60;;
71080;SDS011;58740;50.672;18.690;2022-12-18T07:18:53;46.10;;;18.90;;
71080;SDS011;58740;50.672;18.690;2022-12-18T07:21:23;40.00;;;14.90;;
71080;SDS011;58740;50.672;18.690;2022-12-18T07:23:52;34.60;;;11.10;;
71080;SDS011;58740;50.672;18.690;2022-12-18T07:26:21;40.70;;;13.50;;
71080;SDS011;58740;50.672;18.690;2022-12-18T07:28:49;34.70;;;11.80;;
71080;SDS011;58740;50.672;18.690;2022-12-18T07:31:19;36.50;;;11.50;;
71080;SDS011;58740;50.672;18.690;2022-12-18T07:33:50;26.90;;;10.90;;
71080;SDS011;58740;50.672;18.690;2022-12-18T07:36:19;43.20;;;15.00;;
71080;SDS011;58740;50.672;18.690;2022-12-18T07:38:48;47.10;;;18.50;;
71080;SDS011;58740;50.672;18.690;2022-12-18T07:41:16;30.00;;;12.30;;
71080;SDS011;58740;50.672;18.690;2022-12-18T07:43:46;30.80;;;10.00;;
71080;SDS011;58740;50.672;18.690;2022-12-18T07:46:15;33.00;;;10.50;;
71080;SDS011;58740;50.672;18.690;2022-12-18T07:48:44;33.40;;;10.70;;
71080;SDS011;58740;50.672;18.690;2022-12-18T07:51:17;29.00;;;10.10;;
71080;SDS011;58740;50.672;18.690;2022-12-18T07:53:46;40.70;;;11.20;;
71080;SDS011;58740;50.672;18.690;2022-12-18T07:56:20;32.80;;;12.60;;
71080;SDS011;58740;50.672;18.690;2022-12-18T07:58:57;32.90;;;12.90;;
71080;SDS011;58740;50.672;18.690;2022-12-18T08:01:26;36.10;;;12.90;;
71080;SDS011;58740;50.672;18.690;2022-12-18T08:03:55;29.90;;;9.80;;
71080;SDS011;58740;50.672;18.690;2022-12-18T08:06:23;28.20;;;9.70;;
71080;SDS011;58740;50.672;18.690;2022-12-18T08:08:52;30.00;;;9.90;;
71080;SDS011;58740;50.672;18.690;2022-12-18T08:11:22;30.60;;;10.60;;
71080;SDS011;58740;50.672;18.690;2022-12-18T08:13:52;31.10;;;11.70;;
71080;SDS011;58740;50.672;18.690;2022-12-18T08:16:21;26.00;;;8.70;;
71080;SDS011;58740;50.672;18.690;2022-12-18T08:18:52;25.30;;;8.80;;
71080;SDS011;58740;50.672;18.690;2022-12-18T08:21:24;27.10;;;10.60;;
71080;SDS011;58740;50.672;18.690;2022-12-18T08:23:55;39.90;;;12.10;;
71080;SDS011;58740;50.672;18.690;2022-12-18T08:26:26;32.90;;;10.50;;
71080;SDS011;58740;50.672;18.690;2022-12-18T08:28:57;29.20;;;9.50;;
71080;SDS011;58740;50.672;18.690;2022-12-18T08:31:27;28.40;;;9.90;;
71080;SDS011;58740;50.672;18.690;2022-12-18T08:33:57;29.50;;;9.90;;
71080;SDS011;58740;50.672;18.690;2022-12-18T08:36:25;30.50;;;10.60;;
71080;SDS011;58740;50.672;18.690;2022-12-18T08:38:54;36.90;;;10.10;;
71080;SDS011;58740;50.672;18.690;2022-12-18T08:41:21;28.90;;;9.30;;
71080;SDS011;58740;50.672;18.690;2022-12-18T08:43:49;30.10;;;8.70;;
71080;SDS011;58740;50.672;18.690;2022-12-18T08:46:41;28.30;;;9.10;;
71080;SDS011;58740;50.672;18.690;2022-12-18T08:49:11;32.10;;;8.40;;
71080;SDS011;58740;50.672;18.690;2022-12-18T08:51:40;27.10;;;8.80;;
71080;SDS011;58740;50.672;18.690;2022-12-18T08:54:13;23.40;;;8.50;;
71080;SDS011;58740;50.672;18.690;2022-12-18T08:56:41;17.60;;;6.60;;
71080;SDS011;58740;50.672;18.690;2022-12-18T08:59:09;31.20;;;10.50;;
71080;SDS011;58740;50.672;18.690;2022-12-18T09:01:46;19.70;;;7.70;;
71080;SDS011;58740;50.672;18.690;2022-12-18T09:04:15;30.30;;;9.10;;
71080;SDS011;58740;50.672;18.690;2022-12-18T09:06:43;37.40;;;12.40;;
71080;SDS011;58740;50.672;18.690;2022-12-18T09:09:11;32.40;;;9.70;;
71080;SDS011;58740;50.672;18.690;2022-12-18T09:11:39;25.90;;;9.70;;
71080;SDS011;58740;50.672;18.690;2022-12-18T09:14:06;29.80;;;9.80;;
71080;SDS011;58740;50.672;18.690;2022-12-18T09:16:34;31.10;;;10.20;;
71080;SDS011;58740;50.672;18.690;2022-12-18T09:19:04;28.90;;;10.30;;
71080;SDS011;58740;50.672;18.690;2022-12-18T09:21:34;28.00;;;10.50;;
71080;SDS011;58740;50.672;18.690;2022-12-18T09:24:14;28.70;;;11.50;;
71080;SDS011;58740;50.672;18.690;2022-12-18T09:26:42;26.50;;;9.90;;
71080;SDS011;58740;50.672;18.690;2022-12-18T09:29:15;33.00;;;12.10;;
71080;SDS011;58740;50.672;18.690;2022-12-18T09:31:45;23.20;;;10.40;;
71080;SDS011;58740;50.672;18.690;2022-12-18T09:34:14;27.70;;;10.30;;
71080;SDS011;58740;50.672;18.690;2022-12-18T09:36:42;25.70;;;10.90;;
71080;SDS011;58740;50.672;18.690;2022-12-18T09:39:11;30.30;;;12.50;;
71080;SDS011;58740;50.672;18.690;2022-12-18T09:44:41;30.50;;;10.20;;
71080;SDS011;58740;50.672;18.690;2022-12-18T09:47:21;39.60;;;13.10;;
71080;SDS011;58740;50.672;18.690;2022-12-18T09:49:58;37.70;;;12.70;;
71080;SDS011;58740;50.672;18.690;2022-12-18T09:52:40;37.80;;;10.30;;
71080;SDS011;58740;50.672;18.690;2022-12-18T10:00:37;33.00;;;11.30;;
71080;SDS011;58740;50.672;18.690;2022-12-18T10:03:13;38.20;;;12.80;;
71080;SDS011;58740;50.672;18.690;2022-12-18T10:14:51;33.30;;;10.20;;
71080;SDS011;58740;50.672;18.690;2022-12-18T10:17:42;36.00;;;12.10;;
71080;SDS011;58740;50.672;18.690;2022-12-18T10:23:28;42.40;;;14.00;;
71080;SDS011;58740;50.672;18.690;2022-12-18T10:26:12;32.10;;;12.70;;
71080;SDS011;58740;50.672;18.690;2022-12-18T10:28:41;43.40;;;15.50;;
71080;SDS011;58740;50.672;18.690;2022-12-18T10:31:16;48.80;;;16.60;;
71080;SDS011;58740;50.672;18.690;2022-12-18T10:33:46;48.50;;;15.40;;
71080;SDS011;58740;50.672;18.690;2022-12-18T10:36:14;46.50;;;15.50;;
71080;SDS011;58740;50.672;18.690;2022-12-18T10:38:42;39.30;;;14.80;;
71080;SDS011;58740;50.672;18.690;2022-12-18T10:44:16;36.60;;;12.70;;
71080;SDS011;58740;50.672;18.690;2022-12-18T10:46:49;37.90;;;12.10;;
71080;SDS011;58740;50.672;18.690;2022-12-18T10:49:30;35.30;;;12.70;;
71080;SDS011;58740;50.672;18.690;2022-12-18T10:54:55;32.30;;;11.40;;
71080;SDS011;58740;50.672;18.690;2022-12-18T11:00:26;38.50;;;12.50;;
71080;SDS011;58740;50.672;18.690;2022-12-18T11:02:57;24.90;;;9.30;;
71080;SDS011;58740;50.672;18.690;2022-12-18T11:05:30;35.40;;;12.70;;
71080;SDS011;58740;50.672;18.690;2022-12-18T11:08:01;37.60;;;12.90;;
71080;SDS011;58740;50.672;18.690;2022-12-18T11:10:36;31.70;;;11.80;;
71080;SDS011;58740;50.672;18.690;2022-12-18T11:13:20;43.00;;;14.20;;
71080;SDS011;58740;50.672;18.690;2022-12-18T11:15:50;56.60;;;19.40;;
71080;SDS011;58740;50.672;18.690;2022-12-18T11:18:30;53.20;;;19.00;;
71080;SDS011;58740;50.672;18.690;2022-12-18T11:21:10;45.20;;;14.70;;
71080;SDS011;58740;50.672;18.690;2022-12-18T11:23:51;39.20;;;13.70;;
71080;SDS011;58740;50.672;18.690;2022-12-18T11:26:20;32.40;;;11.10;;
71080;SDS011;58740;50.672;18.690;2022-12-18T11:29:10;34.80;;;11.40;;
71080;SDS011;58740;50.672;18.690;2022-12-18T11:31:46;37.80;;;13.30;;
71080;SDS011;58740;50.672;18.690;2022-12-18T11:37:00;27.00;;;11.70;;
71080;SDS011;58740;50.672;18.690;2022-12-18T11:39:37;33.60;;;11.10;;
71080;SDS011;58740;50.672;18.690;2022-12-18T11:42:32;31.60;;;11.60;;
71080;SDS011;58740;50.672;18.690;2022-12-18T11:45:25;35.50;;;12.10;;
71080;SDS011;58740;50.672;18.690;2022-12-18T11:48:01;33.30;;;10.90;;
71080;SDS011;58740;50.672;18.690;2022-12-18T11:50:41;33.90;;;14.00;;
71080;SDS011;58740;50.672;18.690;2022-12-18T11:53:15;30.00;;;12.40;;
71080;SDS011;58740;50.672;18.690;2022-12-18T11:59:23;45.40;;;15.30;;
71080;SDS011;58740;50.672;18.690;2022-12-18T12:02:16;41.10;;;14.30;;
71080;SDS011;58740;50.672;18.690;2022-12-18T12:10:55;39.10;;;13.00;;
71080;SDS011;58740;50.672;18.690;2022-12-18T12:16:17;34.50;;;13.10;;
71080;SDS011;58740;50.672;18.690;2022-12-18T12:19:10;33.40;;;14.60;;
71080;SDS011;58740;50.672;18.690;2022-12-18T12:22:00;51.80;;;18.30;;
71080;SDS011;58740;50.672;18.690;2022-12-18T12:25:03;53.80;;;18.30;;
71080;SDS011;58740;50.672;18.690;2022-12-18T12:28:13;44.20;;;16.20;;
71080;SDS011;58740;50.672;18.690;2022-12-18T12:39:08;33.50;;;12.40;;
71080;SDS011;58740;50.672;18.690;2022-12-18T12:41:44;40.30;;;13.50;;
71080;SDS011;58740;50.672;18.690;2022-12-18T12:44:39;40.50;;;13.50;;
71080;SDS011;58740;50.672;18.690;2022-12-18T12:47:21;52.90;;;13.70;;
71080;SDS011;58740;50.672;18.690;2022-12-18T12:50:05;37.80;;;12.00;;
71080;SDS011;58740;50.672;18.690;2022-12-18T12:52:46;36.50;;;12.30;;
71080;SDS011;58740;50.672;18.690;2022-12-18T12:55:28;37.40;;;14.50;;
71080;SDS011;58740;50.672;18.690;2022-12-18T12:58:07;33.50;;;13.50;;
71080;SDS011;58740;50.672;18.690;2022-12-18T13:00:58;35.80;;;12.40;;
71080;SDS011;58740;50.672;18.690;2022-12-18T13:07:00;33.90;;;11.40;;
71080;SDS011;58740;50.672;18.690;2022-12-18T13:09:33;34.00;;;12.70;;
71080;SDS011;58740;50.672;18.690;2022-12-18T13:12:10;31.90;;;11.30;;
71080;SDS011;58740;50.672;18.690;2022-12-18T13:15:21;36.60;;;13.50;;
71080;SDS011;58740;50.672;18.690;2022-12-18T13:18:12;37.30;;;14.60;;
71080;SDS011;58740;50.672;18.690;2022-12-18T13:21:04;39.50;;;13.50;;
71080;SDS011;58740;50.672;18.690;2022-12-18T13:23:43;53.20;;;20.00;;
71080;SDS011;58740;50.672;18.690;2022-12-18T13:28:56;31.70;;;11.70;;
71080;SDS011;58740;50.672;18.690;2022-12-18T13:36:57;45.30;;;16.80;;
71080;SDS011;58740;50.672;18.690;2022-12-18T13:39:59;47.70;;;16.40;;
71080;SDS011;58740;50.672;18.690;2022-12-18T13:42:47;49.00;;;17.40;;
71080;SDS011;58740;50.672;18.690;2022-12-18T13:45:42;42.10;;;13.80;;
71080;SDS011;58740;50.672;18.690;2022-12-18T13:48:37;40.60;;;16.60;;
71080;SDS011;58740;50.672;18.690;2022-12-18T13:51:08;58.20;;;21.50;;
71080;SDS011;58740;50.672;18.690;2022-12-18T13:53:43;56.00;;;22.90;;
71080;SDS011;58740;50.672;18.690;2022-12-18T13:56:24;62.20;;;22.50;;
71080;SDS011;58740;50.672;18.690;2022-12-18T13:59:33;63.00;;;22.10;;
71080;SDS011;58740;50.672;18.690;2022-12-18T14:02:15;57.00;;;21.50;;
71080;SDS011;58740;50.672;18.690;2022-12-18T14:04:46;55.90;;;21.10;;
71080;SDS011;58740;50.672;18.690;2022-12-18T14:07:25;53.10;;;20.50;;
71080;SDS011;58740;50.672;18.690;2022-12-18T14:10:01;46.40;;;18.60;;
71080;SDS011;58740;50.672;18.690;2022-12-18T14:12:51;50.40;;;18.90;;
71080;SDS011;58740;50.672;18.690;2022-12-18T14:15:33;46.10;;;18.30;;
71080;SDS011;58740;50.672;18.690;2022-12-18T14:18:24;46.60;;;18.40;;
71080;SDS011;58740;50.672;18.690;2022-12-18T14:21:04;49.80;;;18.80;;
71080;SDS011;58740;50.672;18.690;2022-12-18T14:23:38;51.40;;;18.60;;
71080;SDS011;58740;50.672;18.690;2022-12-18T14:26:27;41.70;;;17.60;;
71080;SDS011;58740;50.672;18.690;2022-12-18T14:28:59;47.90;;;19.70;;
71080;SDS011;58740;50.672;18.690;2022-12-18T14:31:30;54.30;;;20.60;;
71080;SDS011;58740;50.672;18.690;2022-12-18T14:33:59;53.10;;;20.20;;
71080;SDS011;58740;50.672;18.690;2022-12-18T14:36:28;58.00;;;20.30;;
71080;SDS011;58740;50.672;18.690;2022-12-18T14:38:58;53.60;;;20.00;;
71080;SDS011;58740;50.672;18.690;2022-12-18T14:41:26;54.50;;;22.30;;
71080;SDS011;58740;50.672;18.690;2022-12-18T14:44:05;69.50;;;24.90;;
71080;SDS011;58740;50.672;18.690;2022-12-18T14:46:39;84.90;;;28.60;;
71080;SDS011;58740;50.672;18.690;2022-12-18T14:49:31;77.70;;;29.00;;
71080;SDS011;58740;50.672;18.690;2022-12-18T14:52:05;74.90;;;26.80;;
71080;SDS011;58740;50.672;18.690;2022-12-18T14:54:46;71.40;;;26.10;;
71080;SDS011;58740;50.672;18.690;2022-12-18T14:57:22;77.80;;;26.40;;
71080;SDS011;58740;50.672;18.690;2022-12-18T14:59:51;73.70;;;25.30;;
71080;SDS011;58740;50.672;18.690;2022-12-18T15:02:26;67.10;;;28.00;;
71080;SDS011;58740;50.672;18.690;2022-12-18T15:05:03;71.20;;;27.60;;
71080;SDS011;58740;50.672;18.690;2022-12-18T15:07:50;64.00;;;24.40;;
71080;SDS011;58740;50.672;18.690;2022-12-18T15:10:20;72.70;;;24.30;;
71080;SDS011;58740;50.672;18.690;2022-12-18T15:13:17;79.10;;;25.40;;
71080;SDS011;58740;50.672;18.690;2022-12-18T15:15:50;66.40;;;23.20;;
71080;SDS011;58740;50.672;18.690;2022-12-18T15:18:23;69.70;;;25.30;;
71080;SDS011;58740;50.672;18.690;2022-12-18T15:21:07;62.30;;;23.90;;
71080;SDS011;58740;50.672;18.690;2022-12-18T15:26:13;64.70;;;22.90;;
71080;SDS011;58740;50.672;18.690;2022-12-18T15:28:48;73.10;;;26.20;;
71080;SDS011;58740;50.672;18.690;2022-12-18T15:31:28;55.90;;;22.10;;
71080;SDS011;58740;50.672;18.690;2022-12-18T15:34:12;57.40;;;22.30;;
71080;SDS011;58740;50.672;18.690;2022-12-18T15:36:45;60.10;;;21.60;;
71080;SDS011;58740;50.672;18.690;2022-12-18T15:39:13;57.10;;;22.10;;
71080;SDS011;58740;50.672;18.690;2022-12-18T15:41:41;55.00;;;21.20;;
71080;SDS011;58740;50.672;18.690;2022-12-18T15:44:28;46.90;;;21.00;;
71080;SDS011;58740;50.672;18.690;2022-12-18T15:46:57;59.30;;;20.50;;
71080;SDS011;58740;50.672;18.690;2022-12-18T15:49:25;58.20;;;22.40;;
71080;SDS011;58740;50.672;18.690;2022-12-18T15:52:02;55.60;;;20.60;;
71080;SDS011;58740;50.672;18.690;2022-12-18T15:54:30;70.00;;;23.70;;
71080;SDS011;58740;50.672;18.690;2022-12-18T15:57:16;61.10;;;21.40;;
71080;SDS011;58740;50.672;18.690;2022-12-18T15:59:55;66.20;;;22.80;;
71080;SDS011;58740;50.672;18.690;2022-12-18T16:02:26;57.40;;;21.60;;
71080;SDS011;58740;50.672;18.690;2022-12-18T16:04:56;74.70;;;24.60;;
71080;SDS011;58740;50.672;18.690;2022-12-18T16:07:24;67.60;;;25.50;;
71080;SDS011;58740;50.672;18.690;2022-12-18T16:09:56;63.90;;;23.90;;
71080;SDS011;58740;50.672;18.690;2022-12-18T16:12:26;76.90;;;26.90;;
71080;SDS011;58740;50.672;18.690;2022-12-18T16:14:54;73.50;;;26.30;;
71080;SDS011;58740;50.672;18.690;2022-12-18T16:17:22;69.70;;;26.40;;
71080;SDS011;58740;50.672;18.690;2022-12-18T16:19:50;68.00;;;25.90;;
71080;SDS011;58740;50.672;18.690;2022-12-18T16:22:22;70.40;;;27.10;;
71080;SDS011;58740;50.672;18.690;2022-12-18T16:24:54;70.60;;;27.90;;
71080;SDS011;58740;50.672;18.690;2022-12-18T16:27:23;76.60;;;28.50;;
71080;SDS011;58740;50.672;18.690;2022-12-18T16:29:52;79.40;;;28.00;;
71080;SDS011;58740;50.672;18.690;2022-12-18T16:32:21;73.90;;;27.50;;